Time;durP1;ratioP1;P1;durP2;ratioP2;P2;SDS_P1;SDS_P2;PMS_P1;PMS_P2;Temp;Humidity;BMP_temperature;BMP_pressure;BME280_temperature;BME280_humidity;BME280_pressure;Samples;Min_cycle;Max_cycle;Signal;HPM_P1;HPM_P2
2021/09/02 00:04:30;;;;;;;6.70;2.10;;;;;;;;;;10448844;28;20025;-91
2021/09/02 00:09:31;;;;;;;2.15;1.90;;;;;;;;;;10438498;28;20095;-92
2021/09/02 00:14:31;;;;;;;6.05;1.75;;;;;;;;;;10421723;28;20083;-90
2021/09/02 00:19:32;;;;;;;5.90;1.83;;;;;;;;;;10423007;28;20430;-92
2021/09/02 00:24:32;;;;;;;11.40;1.97;;;;;;;;;;10424704;28;20458;-92
2021/09/02 00:29:32;;;;;;;5.28;2.42;;;;;;;;;;10426234;28;20973;-93
2021/09/02 00:34:33;;;;;;;6.53;1.90;;;;;;;;;;10413171;28;20425;-92
2021/09/02 00:39:33;;;;;;;5.65;1.63;;;;;;;;;;10414942;28;20036;-93
2021/09/02 00:44:39;;;;;;;4.00;1.80;;;;;;;;;;10413019;28;20049;-92
2021/09/02 00:49:40;;;;;;;6.90;1.70;;;;;;;;;;10412965;28;20975;-93
2021/09/02 00:54:49;;;;;;;3.50;1.60;;;;;;;;;;10412825;28;20025;-94
2021/09/02 00:59:51;;;;;;;3.58;1.73;;;;;;;;;;10426448;28;20048;-93
2021/09/02 01:04:53;;;;;;;3.50;1.45;;;;;;;;;;10412384;28;20024;-93
2021/09/02 01:09:54;;;;;;;5.45;1.67;;;;;;;;;;10411720;28;20442;-92
2021/09/02 01:14:56;;;;;;;5.53;1.70;;;;;;;;;;10411774;28;20032;-92
2021/09/02 01:19:57;;;;;;;2.75;1.48;;;;;;;;;;10442492;28;20111;-93
2021/09/02 01:24:59;;;;;;;3.38;1.45;;;;;;;;;;10411456;28;20123;-93
2021/09/02 01:30:00;;;;;;;3.45;1.60;;;;;;;;;;10397091;28;20031;-89
2021/09/02 01:47:24;;;;;;;1.95;1.85;;;;;;;;;;10450790;28;20072;-89
2021/09/02 01:52:27;;;;;;;3.00;1.88;;;;;;;;;;10424154;28;20036;-90
2021/09/02 01:57:27;;;;;;;2.63;1.65;;;;;;;;;;10423790;28;20025;-89
2021/09/02 02:20:33;;;;;;;1.92;1.73;;;;;;;;;;10443037;28;20371;-85
2021/09/02 02:25:33;;;;;;;3.75;1.40;;;;;;;;;;10428272;28;20033;-91
2021/09/02 02:30:34;;;;;;;1.75;1.65;;;;;;;;;;10396910;28;20033;-92
2021/09/02 02:35:35;;;;;;;2.25;1.48;;;;;;;;;;10406420;28;20040;-92
2021/09/02 02:40:35;;;;;;;2.70;1.80;;;;;;;;;;10414407;28;20029;-86
2021/09/02 02:45:36;;;;;;;1.85;1.35;;;;;;;;;;10436910;28;20478;-87
2021/09/02 02:50:36;;;;;;;2.08;1.63;;;;;;;;;;10451673;28;20108;-87
2021/09/02 02:55:36;;;;;;;6.33;1.50;;;;;;;;;;10439777;28;20021;-87
2021/09/02 03:00:37;;;;;;;1.80;1.60;;;;;;;;;;10418882;28;20991;-92
2021/09/02 03:05:37;;;;;;;3.17;1.60;;;;;;;;;;10446367;28;20036;-89
2021/09/02 03:10:38;;;;;;;4.73;1.57;;;;;;;;;;10419178;28;20451;-91
2021/09/02 03:16:19;;;;;;;4.63;1.60;;;;;;;;;;10406662;28;20021;-90
2021/09/02 03:21:20;;;;;;;1.63;1.27;;;;;;;;;;10432721;28;20056;-90
2021/09/02 03:26:20;;;;;;;4.18;1.50;;;;;;;;;;10429626;28;20031;-89
2021/09/02 03:31:21;;;;;;;1.80;1.38;;;;;;;;;;10429382;28;20467;-90
2021/09/02 03:36:21;;;;;;;1.55;1.45;;;;;;;;;;10395810;28;20029;-91
2021/09/02 03:41:22;;;;;;;3.33;1.50;;;;;;;;;;10419972;28;20029;-91
2021/09/02 03:46:22;;;;;;;1.50;1.40;;;;;;;;;;10430285;28;20043;-94
2021/09/02 03:51:22;;;;;;;1.50;1.40;;;;;;;;;;10415616;28;20055;-94
2021/09/02 03:56:23;;;;;;;2.00;1.50;;;;;;;;;;10430724;28;20566;-94
2021/09/02 04:01:25;;;;;;;1.40;1.30;;;;;;;;;;10426433;28;20025;-93
2021/09/02 04:06:25;;;;;;;1.65;1.40;;;;;;;;;;10428898;28;20029;-93
2021/09/02 04:11:26;;;;;;;2.65;1.40;;;;;;;;;;10404470;28;20026;-91
2021/09/02 04:16:26;;;;;;;1.65;1.35;;;;;;;;;;10401361;28;20044;-93
2021/09/02 04:21:27;;;;;;;7.15;1.55;;;;;;;;;;10415033;28;20730;-91
2021/09/02 04:26:27;;;;;;;3.90;1.10;;;;;;;;;;10419740;28;20128;-90
2021/09/02 04:31:27;;;;;;;5.17;1.83;;;;;;;;;;10402499;28;20033;-90
2021/09/02 04:36:28;;;;;;;1.50;1.40;;;;;;;;;;10426260;28;20025;-93
2021/09/02 04:41:28;;;;;;;3.10;0.98;;;;;;;;;;10400213;28;20518;-89
2021/09/02 04:46:29;;;;;;;3.43;1.20;;;;;;;;;;10415013;28;20033;-88
2021/09/02 04:51:29;;;;;;;6.00;1.30;;;;;;;;;;10416125;28;20075;-89
2021/09/02 04:56:29;;;;;;;1.97;1.33;;;;;;;;;;10415513;28;20094;-91
2021/09/02 05:01:30;;;;;;;1.83;1.50;;;;;;;;;;10414387;28;20044;-90
2021/09/02 05:06:30;;;;;;;1.67;1.50;;;;;;;;;;10399576;28;20022;-88
2021/09/02 05:11:31;;;;;;;1.58;1.20;;;;;;;;;;10401140;28;20454;-91
2021/09/02 05:16:31;;;;;;;1.80;1.60;;;;;;;;;;10408060;28;20033;-89
2021/09/02 05:21:31;;;;;;;1.47;1.37;;;;;;;;;;10412792;28;20035;-85
2021/09/02 05:26:32;;;;;;;1.80;1.57;;;;;;;;;;10426241;28;20074;-83
2021/09/02 05:31:33;;;;;;;3.60;1.63;;;;;;;;;;10456999;28;20028;-84
2021/09/02 05:36:33;;;;;;;1.43;1.10;;;;;;;;;;10446247;28;20066;-86
2021/09/02 05:41:34;;;;;;;1.57;1.30;;;;;;;;;;10432179;28;20532;-86
2021/09/02 05:46:34;;;;;;;1.40;1.30;;;;;;;;;;10389030;28;20965;-85
2021/09/02 05:51:34;;;;;;;2.50;1.43;;;;;;;;;;10401468;28;20029;-90
2021/09/02 05:56:35;;;;;;;3.50;1.37;;;;;;;;;;10373086;28;20029;-84
2021/09/02 06:01:36;;;;;;;1.23;1.13;;;;;;;;;;10376445;28;20030;-87
2021/09/02 06:06:36;;;;;;;4.00;1.30;;;;;;;;;;10395239;28;20536;-88
2021/09/02 06:11:37;;;;;;;3.35;1.42;;;;;;;;;;10375262;28;20040;-88
2021/09/02 06:16:37;;;;;;;1.50;1.40;;;;;;;;;;10380537;28;20124;-92
2021/09/02 06:21:37;;;;;;;1.87;1.40;;;;;;;;;;10372494;28;20072;-83
2021/09/02 06:26:38;;;;;;;5.03;1.30;;;;;;;;;;10396896;28;20038;-83
2021/09/02 06:31:38;;;;;;;3.00;1.57;;;;;;;;;;10411683;28;20409;-84
2021/09/02 06:36:39;;;;;;;1.50;1.20;;;;;;;;;;10393988;28;20479;-85
2021/09/02 06:41:39;;;;;;;1.30;1.20;;;;;;;;;;10411087;28;20042;-80
2021/09/02 06:46:40;;;;;;;2.33;1.60;;;;;;;;;;10373788;28;20376;-84
2021/09/02 06:51:41;;;;;;;4.68;1.52;;;;;;;;;;10389611;28;20438;-82
2021/09/02 06:56:41;;;;;;;1.40;1.25;;;;;;;;;;10402154;28;20022;-81
2021/09/02 07:01:41;;;;;;;2.33;1.60;;;;;;;;;;10387691;28;20025;-82
2021/09/02 07:06:42;;;;;;;3.03;1.20;;;;;;;;;;10373824;28;20105;-82
2021/09/02 07:11:42;;;;;;;4.83;1.80;;;;;;;;;;10373642;28;20796;-81
2021/09/02 07:16:43;;;;;;;4.33;1.40;;;;;;;;;;10374871;28;20100;-81
2021/09/02 07:21:43;;;;;;;1.50;1.40;;;;;;;;;;10373422;28;20505;-81
2021/09/02 07:26:43;;;;;;;1.60;1.30;;;;;;;;;;10383213;28;20543;-79
2021/09/02 07:31:44;;;;;;;2.30;1.40;;;;;;;;;;10377747;28;20024;-79
2021/09/02 07:36:45;;;;;;;3.08;1.65;;;;;;;;;;10375518;28;20440;-80
2021/09/02 07:41:45;;;;;;;4.57;1.90;;;;;;;;;;10412894;22;20052;-84
2021/09/02 07:46:46;;;;;;;3.22;1.80;;;;;;;;;;10425335;28;20438;-85
2021/09/02 07:51:46;;;;;;;2.20;1.50;;;;;;;;;;10448278;28;20471;-91
2021/09/02 07:56:47;;;;;;;1.98;1.50;;;;;;;;;;10434881;28;20048;-85
2021/09/02 08:01:47;;;;;;;8.30;3.28;;;;;;;;;;10454987;28;20375;-92
2021/09/02 08:06:48;;;;;;;11.80;3.25;;;;;;;;;;10448468;28;20524;-87
2021/09/02 08:11:48;;;;;;;5.60;3.22;;;;;;;;;;10458590;28;20033;-87
2021/09/02 08:16:49;;;;;;;11.30;3.70;;;;;;;;;;10426551;28;20033;-88
2021/09/02 08:21:49;;;;;;;9.63;3.08;;;;;;;;;;10419123;28;20477;-88
2021/09/02 08:26:49;;;;;;;6.63;3.22;;;;;;;;;;10418621;28;20041;-92
2021/09/02 08:31:50;;;;;;;9.82;3.55;;;;;;;;;;10421619;28;20108;-92
2021/09/02 08:36:51;;;;;;;7.97;2.85;;;;;;;;;;10420901;28;20099;-90
2021/09/02 08:41:52;;;;;;;8.18;3.10;;;;;;;;;;10422099;28;20064;-90
2021/09/02 08:46:52;;;;;;;8.27;2.85;;;;;;;;;;10390266;28;20033;-93
2021/09/02 08:51:52;;;;;;;5.27;3.03;;;;;;;;;;10403285;28;20034;-92
2021/09/02 08:56:53;;;;;;;5.63;2.93;;;;;;;;;;10424241;28;20076;-92
2021/09/02 09:01:53;;;;;;;10.03;2.90;;;;;;;;;;10421154;28;20562;-89
2021/09/02 09:06:53;;;;;;;5.18;2.70;;;;;;;;;;10418065;28;20025;-89
2021/09/02 09:12:00;;;;;;;6.30;2.90;;;;;;;;;;10418351;28;20025;-92
2021/09/02 09:17:00;;;;;;;11.38;3.08;;;;;;;;;;10419508;28;20108;-93
2021/09/02 09:22:01;;;;;;;5.07;3.10;;;;;;;;;;10418032;28;20593;-92
2021/09/02 09:27:07;;;;;;;3.60;2.60;;;;;;;;;;10417036;28;20036;-89
2021/09/02 09:32:13;;;;;;;8.27;3.15;;;;;;;;;;10400430;28;20117;-87
2021/09/02 09:37:14;;;;;;;6.80;3.28;;;;;;;;;;10431463;28;20493;-87
2021/09/02 09:42:18;;;;;;;11.63;3.10;;;;;;;;;;10417134;28;20081;-88
2021/09/02 09:47:21;;;;;;;8.80;3.22;;;;;;;;;;10424831;28;20040;-87
2021/09/02 09:52:27;;;;;;;4.30;2.95;;;;;;;;;;10436993;28;20037;-89
2021/09/02 09:57:32;;;;;;;4.32;2.72;;;;;;;;;;10430158;28;20071;-88
2021/09/02 10:02:35;;;;;;;5.35;3.60;;;;;;;;;;10417163;28;20033;-91
2021/09/02 10:07:38;;;;;;;7.47;3.28;;;;;;;;;;10415997;28;20455;-90
2021/09/02 10:12:40;;;;;;;6.07;3.20;;;;;;;;;;10422805;28;20029;-89
2021/09/02 10:17:42;;;;;;;9.18;3.25;;;;;;;;;;10425847;28;20348;-89
2021/09/02 10:22:44;;;;;;;4.45;3.10;;;;;;;;;;10420504;28;20040;-91
2021/09/02 10:27:45;;;;;;;6.03;3.10;;;;;;;;;;10398644;28;20460;-89
2021/09/02 10:32:45;;;;;;;5.03;2.88;;;;;;;;;;10416854;28;20120;-88
2021/09/02 10:37:45;;;;;;;6.17;3.07;;;;;;;;;;10454833;28;20034;-90
2021/09/02 10:42:57;;;;;;;4.93;2.80;;;;;;;;;;10429192;28;20136;-90
2021/09/02 10:48:02;;;;;;;5.55;2.38;;;;;;;;;;10425248;28;20431;-90
2021/09/02 10:53:16;;;;;;;4.18;2.80;;;;;;;;;;10443923;28;20041;-95
2021/09/02 10:58:51;;;;;;;5.72;3.70;;;;;;;;;;10407515;28;20036;-94
2021/09/02 11:03:52;;;;;;;8.23;3.60;;;;;;;;;;10400113;28;20095;-95
2021/09/02 11:08:53;;;;;;;3.90;3.20;;;;;;;;;;10397116;28;20022;-94
2021/09/02 11:13:54;;;;;;;4.97;3.13;;;;;;;;;;10422914;28;20369;-93
2021/09/02 11:18:56;;;;;;;4.43;3.03;;;;;;;;;;10420111;28;20079;-93
2021/09/02 11:24:03;;;;;;;5.97;3.10;;;;;;;;;;10423386;28;20040;-92
2021/09/02 11:29:05;;;;;;;5.60;2.88;;;;;;;;;;10405737;28;20391;-93
2021/09/02 11:34:06;;;;;;;4.30;3.38;;;;;;;;;;10423517;28;20083;-90
2021/09/02 11:39:08;;;;;;;4.85;3.45;;;;;;;;;;10426884;28;20029;-90
2021/09/02 11:44:19;;;;;;;4.68;2.97;;;;;;;;;;10452756;28;20048;-92
2021/09/02 11:49:19;;;;;;;4.15;2.95;;;;;;;;;;10439384;28;20064;-91
2021/09/02 11:54:20;;;;;;;4.33;2.77;;;;;;;;;;10454966;28;20036;-93
2021/09/02 11:59:20;;;;;;;4.30;2.80;;;;;;;;;;10430563;28;20463;-91
2021/09/02 12:04:21;;;;;;;3.50;2.72;;;;;;;;;;10430623;28;20467;-91
2021/09/02 12:09:29;;;;;;;3.05;2.63;;;;;;;;;;10437262;28;20409;-93
2021/09/02 12:14:31;;;;;;;4.60;3.05;;;;;;;;;;10456139;28;20025;-92
2021/09/02 12:19:57;;;;;;;5.35;2.75;;;;;;;;;;10445983;28;20076;-90
2021/09/02 12:25:17;;;;;;;6.10;2.92;;;;;;;;;;10452560;28;20119;-90
2021/09/02 12:30:42;;;;;;;3.80;2.60;;;;;;;;;;10453195;28;20044;-92
2021/09/02 12:35:45;;;;;;;3.40;3.10;;;;;;;;;;10448855;28;20040;-90
2021/09/02 12:40:46;;;;;;;5.35;3.45;;;;;;;;;;10438411;28;20056;-92
2021/09/02 12:45:57;;;;;;;8.40;3.20;;;;;;;;;;10450735;28;20110;-91
2021/09/02 12:50:59;;;;;;;6.40;3.03;;;;;;;;;;10449607;28;20037;-92
2021/09/02 12:56:20;;;;;;;2.78;2.53;;;;;;;;;;10446173;28;20040;-87
2021/09/02 13:01:20;;;;;;;3.22;2.47;;;;;;;;;;10458860;28;20399;-89
2021/09/02 13:06:20;;;;;;;6.40;2.57;;;;;;;;;;10459298;28;20028;-87
2021/09/02 13:11:21;;;;;;;26.27;3.13;;;;;;;;;;10458226;28;20164;-88
2021/09/02 13:16:21;;;;;;;27.00;3.58;;;;;;;;;;10459397;28;20490;-89
2021/09/02 13:21:22;;;;;;;22.40;4.00;;;;;;;;;;10448268;28;20463;-93
2021/09/02 13:26:23;;;;;;;21.48;3.85;;;;;;;;;;10457678;28;20841;-90
2021/09/02 13:31:23;;;;;;;18.37;3.33;;;;;;;;;;10452819;28;20119;-90
2021/09/02 13:36:24;;;;;;;14.50;3.65;;;;;;;;;;10433741;28;20796;-91
2021/09/02 13:41:25;;;;;;;16.20;3.87;;;;;;;;;;10457844;28;20094;-91
2021/09/02 13:46:25;;;;;;;8.13;2.58;;;;;;;;;;10458383;28;20128;-89
2021/09/02 13:51:26;;;;;;;6.65;2.95;;;;;;;;;;10458167;28;20094;-90
2021/09/02 13:56:26;;;;;;;9.43;2.97;;;;;;;;;;10444416;28;20570;-90
2021/09/02 14:01:27;;;;;;;12.53;2.77;;;;;;;;;;10456943;28;20470;-89
2021/09/02 14:06:27;;;;;;;7.50;3.28;;;;;;;;;;10457116;28;20021;-90
2021/09/02 14:11:29;;;;;;;7.57;2.80;;;;;;;;;;10457595;28;20442;-90
2021/09/02 14:16:29;;;;;;;12.10;2.45;;;;;;;;;;10457022;28;20470;-91
2021/09/02 14:21:30;;;;;;;5.28;3.17;;;;;;;;;;10452644;28;20045;-89
2021/09/02 14:26:30;;;;;;;7.28;2.58;;;;;;;;;;10456724;28;20025;-90
2021/09/02 14:31:31;;;;;;;4.80;2.63;;;;;;;;;;10456636;28;20108;-90
2021/09/02 14:36:32;;;;;;;6.05;2.75;;;;;;;;;;10457044;28;20047;-90
2021/09/02 14:41:33;;;;;;;9.75;2.80;;;;;;;;;;10439411;28;20054;-89
2021/09/02 14:46:33;;;;;;;4.38;3.10;;;;;;;;;;10419474;28;20116;-91
2021/09/02 14:51:34;;;;;;;4.40;2.37;;;;;;;;;;10452381;28;20029;-91
2021/09/02 14:56:34;;;;;;;3.90;2.70;;;;;;;;;;10423280;28;20025;-90
2021/09/02 15:01:34;;;;;;;5.53;2.70;;;;;;;;;;10425757;28;20029;-90
2021/09/02 15:06:35;;;;;;;3.00;2.67;;;;;;;;;;10435593;28;21048;-88
2021/09/02 15:11:35;;;;;;;4.00;2.90;;;;;;;;;;10428075;28;20447;-88
2021/09/02 15:16:37;;;;;;;5.20;2.57;;;;;;;;;;10439766;28;20063;-89
2021/09/02 15:21:38;;;;;;;3.58;2.65;;;;;;;;;;10446275;28;20075;-89
2021/09/02 15:26:38;;;;;;;3.20;2.30;;;;;;;;;;10458407;28;20064;-89
2021/09/02 15:31:38;;;;;;;4.93;2.73;;;;;;;;;;10434686;28;20056;-89
2021/09/02 15:36:39;;;;;;;5.23;2.67;;;;;;;;;;10430092;28;20070;-89
2021/09/02 15:41:39;;;;;;;7.63;2.90;;;;;;;;;;10441278;28;20136;-90
2021/09/02 15:46:41;;;;;;;4.53;2.90;;;;;;;;;;10445925;28;20038;-90
2021/09/02 15:51:41;;;;;;;7.50;3.35;;;;;;;;;;10441422;28;20421;-91
2021/09/02 15:56:41;;;;;;;6.60;2.97;;;;;;;;;;10449532;28;20040;-91
2021/09/02 16:01:42;;;;;;;5.33;2.57;;;;;;;;;;10460612;28;20534;-89
2021/09/02 16:06:42;;;;;;;5.77;3.00;;;;;;;;;;10461502;28;20475;-88
2021/09/02 16:11:43;;;;;;;5.28;2.83;;;;;;;;;;10447692;28;20521;-88
2021/09/02 16:16:44;;;;;;;6.60;2.83;;;;;;;;;;10440749;28;20029;-88
2021/09/02 16:21:44;;;;;;;5.67;3.33;;;;;;;;;;10458180;28;20029;-86
2021/09/02 16:26:46;;;;;;;5.13;3.03;;;;;;;;;;10456873;28;20735;-88
2021/09/02 16:31:46;;;;;;;8.27;2.65;;;;;;;;;;10453379;28;20433;-88
2021/09/02 16:36:47;;;;;;;5.23;3.10;;;;;;;;;;10460096;28;20063;-88
2021/09/02 16:41:47;;;;;;;4.03;3.30;;;;;;;;;;10449427;28;20483;-88
2021/09/02 16:46:47;;;;;;;7.18;3.03;;;;;;;;;;10444749;28;20034;-88
2021/09/02 16:51:48;;;;;;;4.00;2.97;;;;;;;;;;10419838;28;20040;-89
2021/09/02 16:56:48;;;;;;;6.37;2.50;;;;;;;;;;10419153;28;20029;-88
2021/09/02 17:01:48;;;;;;;3.97;3.00;;;;;;;;;;10444546;28;20029;-89
2021/09/02 17:06:49;;;;;;;5.90;3.10;;;;;;;;;;10440205;28;20041;-89
2021/09/02 17:11:49;;;;;;;4.20;2.97;;;;;;;;;;10417119;28;20053;-89
2021/09/02 17:16:50;;;;;;;6.80;2.93;;;;;;;;;;10417451;28;20034;-89
2021/09/02 17:21:50;;;;;;;3.85;2.80;;;;;;;;;;10448736;28;20053;-89
2021/09/02 17:26:50;;;;;;;4.53;2.73;;;;;;;;;;10418824;28;20037;-91
2021/09/02 17:31:51;;;;;;;3.57;2.33;;;;;;;;;;10427404;28;20061;-91
2021/09/02 17:36:51;;;;;;;5.63;2.90;;;;;;;;;;10420165;28;20981;-91
2021/09/02 17:41:52;;;;;;;6.40;3.07;;;;;;;;;;10428994;28;20569;-87
2021/09/02 17:46:54;;;;;;;5.25;3.28;;;;;;;;;;10439414;28;20467;-91
2021/09/02 17:51:55;;;;;;;4.47;3.03;;;;;;;;;;10419565;28;20065;-93
2021/09/02 17:56:55;;;;;;;3.65;2.70;;;;;;;;;;10419170;28;20053;-94
2021/09/02 18:01:56;;;;;;;3.37;2.27;;;;;;;;;;10446514;28;20035;-92
2021/09/02 18:06:56;;;;;;;4.05;2.88;;;;;;;;;;10438393;28;20040;-89
2021/09/02 18:11:57;;;;;;;7.13;2.67;;;;;;;;;;10421318;28;20040;-89
2021/09/02 18:16:57;;;;;;;4.38;3.40;;;;;;;;;;10455693;28;20843;-91
2021/09/02 18:21:57;;;;;;;5.93;3.57;;;;;;;;;;10444860;28;20524;-88
2021/09/02 18:26:58;;;;;;;8.87;5.10;;;;;;;;;;10450558;28;20533;-89
2021/09/02 18:31:59;;;;;;;11.80;6.57;;;;;;;;;;10456682;28;20120;-90
2021/09/02 18:37:00;;;;;;;10.02;7.18;;;;;;;;;;10456022;28;20505;-89
2021/09/02 18:42:05;;;;;;;11.53;7.80;;;;;;;;;;10445122;28;20141;-88
2021/09/02 18:47:05;;;;;;;10.90;7.70;;;;;;;;;;10434990;28;20045;-89
2021/09/02 18:52:06;;;;;;;12.50;7.83;;;;;;;;;;10423575;28;20026;-90
2021/09/02 18:57:06;;;;;;;12.63;7.43;;;;;;;;;;10424378;28;20435;-93
2021/09/02 19:02:07;;;;;;;14.13;7.83;;;;;;;;;;10406876;28;20025;-93
2021/09/02 19:07:07;;;;;;;13.77;6.10;;;;;;;;;;10412389;28;20463;-92
2021/09/02 19:12:08;;;;;;;9.70;5.65;;;;;;;;;;10408120;28;20506;-92
2021/09/02 19:17:08;;;;;;;8.77;5.60;;;;;;;;;;10433374;28;20495;-92
2021/09/02 19:22:12;;;;;;;11.67;5.30;;;;;;;;;;10428044;28;20044;-93
2021/09/02 19:27:14;;;;;;;11.27;5.63;;;;;;;;;;10425292;28;20030;-90
2021/09/02 19:32:17;;;;;;;10.27;4.75;;;;;;;;;;10428493;28;20040;-92
2021/09/02 19:37:18;;;;;;;5.45;4.30;;;;;;;;;;10427484;28;20033;-92
2021/09/02 19:42:18;;;;;;;11.60;4.93;;;;;;;;;;10538149;22;20100;-92
2021/09/02 19:47:21;;;;;;;6.28;4.45;;;;;;;;;;10430907;28;20029;-91
2021/09/02 19:52:22;;;;;;;8.10;4.72;;;;;;;;;;10444302;28;20386;-92
2021/09/02 19:57:50;;;;;;;7.95;4.78;;;;;;;;;;10449236;28;20029;-92
2021/09/02 20:02:58;;;;;;;7.03;4.38;;;;;;;;;;10462615;28;20036;-93
2021/09/02 20:08:02;;;;;;;7.35;4.68;;;;;;;;;;10452604;28;20463;-92
2021/09/02 20:13:04;;;;;;;10.48;4.13;;;;;;;;;;10461293;28;20029;-92
2021/09/02 20:18:08;;;;;;;6.65;4.00;;;;;;;;;;10447547;28;20036;-92
2021/09/02 20:23:10;;;;;;;5.78;4.32;;;;;;;;;;10461143;28;20060;-93
2021/09/02 20:28:11;;;;;;;12.02;4.85;;;;;;;;;;10448480;28;20048;-85
2021/09/02 20:33:11;;;;;;;9.38;4.53;;;;;;;;;;10438480;28;20029;-85
2021/09/02 20:38:13;;;;;;;11.13;4.88;;;;;;;;;;10441126;28;20037;-85
2021/09/02 20:43:20;;;;;;;17.13;4.90;;;;;;;;;;10431565;28;20513;-85
2021/09/02 20:48:26;;;;;;;6.05;4.55;;;;;;;;;;10388144;28;20078;-85
2021/09/02 20:53:35;;;;;;;10.68;5.53;;;;;;;;;;10384802;28;20476;-85
2021/09/02 20:58:38;;;;;;;13.15;7.38;;;;;;;;;;10392805;28;20029;-85
2021/09/02 21:03:39;;;;;;;14.57;7.35;;;;;;;;;;10382127;28;20471;-85
2021/09/02 21:08:39;;;;;;;11.48;5.90;;;;;;;;;;10377137;28;20049;-85
2021/09/02 21:13:40;;;;;;;12.30;5.63;;;;;;;;;;10377144;28;20487;-86
2021/09/02 21:18:40;;;;;;;12.45;7.45;;;;;;;;;;10378902;28;20186;-85
2021/09/02 21:23:46;;;;;;;13.60;6.10;;;;;;;;;;10376220;28;20045;-85
2021/09/02 21:28:59;;;;;;;14.93;5.97;;;;;;;;;;10372106;28;20034;-85
2021/09/02 21:34:26;;;;;;;15.40;6.38;;;;;;;;;;10376589;28;20468;-85
2021/09/02 21:39:26;;;;;;;20.42;8.82;;;;;;;;;;10359523;28;20041;-86
2021/09/02 21:44:30;;;;;;;23.93;9.37;;;;;;;;;;10430206;28;20049;-85
2021/09/02 21:49:33;;;;;;;24.08;8.10;;;;;;;;;;10431821;28;20510;-95
2021/09/02 21:54:33;;;;;;;18.77;7.88;;;;;;;;;;10403965;28;20112;-91
2021/09/02 21:59:34;;;;;;;19.50;7.60;;;;;;;;;;10404220;28;20115;-89
2021/09/02 22:04:34;;;;;;;20.88;7.38;;;;;;;;;;10454457;28;20521;-87
2021/09/02 22:09:34;;;;;;;27.80;7.27;;;;;;;;;;10447665;28;20033;-88
2021/09/02 22:15:01;;;;;;;12.30;7.03;;;;;;;;;;10447584;28;20426;-88
2021/09/02 22:20:06;;;;;;;15.20;7.18;;;;;;;;;;10451446;28;20036;-88
2021/09/02 22:25:09;;;;;;;10.27;6.22;;;;;;;;;;10448278;28;20059;-88
2021/09/02 22:30:10;;;;;;;11.88;6.72;;;;;;;;;;10448572;28;20094;-89
2021/09/02 22:35:11;;;;;;;18.58;6.10;;;;;;;;;;10447919;28;20033;-90
2021/09/02 22:40:11;;;;;;;18.17;6.88;;;;;;;;;;10410835;28;20033;-88
2021/09/02 22:45:12;;;;;;;18.30;6.43;;;;;;;;;;10428246;28;20037;-90
2021/09/02 22:50:13;;;;;;;16.33;6.70;;;;;;;;;;10397372;28;20112;-91
2021/09/02 22:55:14;;;;;;;14.93;5.38;;;;;;;;;;10397688;28;20030;-90
2021/09/02 23:00:14;;;;;;;22.60;6.78;;;;;;;;;;10410897;28;20086;-90
2021/09/02 23:05:15;;;;;;;13.35;5.70;;;;;;;;;;10398367;28;20030;-91
2021/09/02 23:10:26;;;;;;;12.43;6.00;;;;;;;;;;10448797;28;20036;-90
2021/09/02 23:15:27;;;;;;;9.98;5.65;;;;;;;;;;10430876;28;20439;-90
2021/09/02 23:20:28;;;;;;;9.02;5.40;;;;;;;;;;10436014;28;20037;-90
2021/09/02 23:25:28;;;;;;;11.45;5.75;;;;;;;;;;10422622;28;20041;-89
2021/09/02 23:30:30;;;;;;;8.70;5.72;;;;;;;;;;10418231;28;20037;-88
2021/09/02 23:35:30;;;;;;;9.50;5.45;;;;;;;;;;10421786;28;20494;-89
2021/09/02 23:40:32;;;;;;;12.50;5.10;;;;;;;;;;10409373;28;20108;-89
2021/09/02 23:45:35;;;;;;;8.48;5.15;;;;;;;;;;10428040;28;20368;-91
2021/09/02 23:50:37;;;;;;;9.85;5.35;;;;;;;;;;10387170;28;20060;-89
2021/09/02 23:55:37;;;;;;;11.30;5.25;;;;;;;;;;10410592;28;20029;-88
